Time;durP1;ratioP1;P1;durP2;ratioP2;P2;SDS_P1;SDS_P2;PMS_P1;PMS_P2;Temp;Humidity;BMP_temperature;BMP_pressure;BME280_temperature;BME280_humidity;BME280_pressure;Samples;Min_cycle;Max_cycle;Signal;HPM_P1;HPM_P2
2022/06/29 00:01:41;;;;;;;8.87;7.53;;;19.50;99.90;;;19.91;74.49;95283.38;5126885;27;20850;-55
2022/06/29 00:04:08;;;;;;;12.00;7.13;;;19.50;99.90;;;19.90;74.80;95283.56;5127119;27;20456;-55
2022/06/29 00:06:35;;;;;;;8.13;7.10;;;19.50;99.90;;;19.88;74.95;95286.41;5123760;27;21180;-55
2022/06/29 00:09:04;;;;;;;15.43;7.23;;;19.40;99.90;;;19.87;75.17;95296.25;5127115;27;20441;-55
2022/06/29 00:11:31;;;;;;;8.93;6.73;;;19.40;99.90;;;19.87;74.96;95300.75;5127142;27;20467;-56
2022/06/29 00:13:59;;;;;;;8.63;7.20;;;19.40;99.90;;;19.87;75.23;95298.09;5127403;27;20465;-56
2022/06/29 00:16:26;;;;;;;7.90;6.70;;;19.40;99.90;;;19.85;74.86;95294.78;5125005;27;20555;-54
2022/06/29 00:18:53;;;;;;;11.23;6.87;;;19.40;99.90;;;19.85;75.22;95303.63;5126911;28;20536;-56
2022/06/29 00:21:20;;;;;;;13.67;6.80;;;19.50;99.90;;;19.85;74.59;95297.47;5123285;28;20490;-56
2022/06/29 00:23:48;;;;;;;13.40;7.10;;;19.40;99.90;;;19.83;74.83;95300.31;5126919;28;20540;-55
2022/06/29 00:26:16;;;;;;;9.27;6.77;;;19.40;99.90;;;19.84;74.66;95301.13;5126653;28;20911;-56
2022/06/29 00:28:43;;;;;;;12.23;7.60;;;19.40;99.90;;;19.81;74.75;95299.66;5125582;28;20526;-56
2022/06/29 00:31:11;;;;;;;19.90;7.20;;;19.40;99.90;;;19.80;74.21;95297.19;5125324;28;21011;-54
2022/06/29 00:33:38;;;;;;;10.20;6.50;;;19.30;99.90;;;19.76;74.53;95303.88;5127108;28;20498;-56
2022/06/29 00:36:06;;;;;;;7.67;7.00;;;19.30;99.90;;;19.73;74.57;95301.59;5122252;28;20475;-54
2022/06/29 00:38:33;;;;;;;9.77;6.67;;;19.30;99.90;;;19.68;74.11;95300.28;5126897;28;20573;-57
2022/06/29 00:41:01;;;;;;;10.07;6.60;;;19.30;99.90;;;19.64;73.92;95293.69;5126675;28;20472;-56
2022/06/29 00:43:29;;;;;;;7.73;7.07;;;19.20;99.90;;;19.59;73.97;95288.06;5127039;28;20448;-55
2022/06/29 00:45:58;;;;;;;7.97;6.60;;;19.20;99.90;;;19.55;74.22;95281.47;5122623;28;20468;-55
2022/06/29 00:48:25;;;;;;;7.80;7.07;;;19.10;99.90;;;19.52;74.73;95281.84;5126505;28;20902;-55
2022/06/29 00:50:53;;;;;;;8.43;7.30;;;19.10;99.90;;;19.50;74.25;95278.50;5126699;28;20868;-55
2022/06/29 00:53:20;;;;;;;7.50;6.80;;;19.10;99.90;;;19.48;74.60;95288.53;5126078;28;20452;-55
2022/06/29 00:55:48;;;;;;;7.10;6.60;;;19.10;99.90;;;19.45;74.52;95291.59;5126536;28;20897;-55
2022/06/29 00:58:15;;;;;;;8.73;7.17;;;19.00;99.90;;;19.43;74.78;95282.94;5126296;28;20464;-55
2022/06/29 01:00:44;;;;;;;7.07;6.37;;;19.00;99.90;;;19.41;74.80;95290.28;5126795;28;20494;-54
2022/06/29 01:03:12;;;;;;;7.77;6.90;;;19.00;99.90;;;19.40;75.17;95289.47;5126251;28;20898;-56
2022/06/29 01:05:39;;;;;;;8.40;7.40;;;19.00;99.90;;;19.38;74.62;95285.31;5126037;28;20472;-57
2022/06/29 01:08:07;;;;;;;7.73;6.67;;;18.90;99.90;;;19.38;75.20;95277.31;5126151;28;20491;-56
2022/06/29 01:10:34;;;;;;;8.40;6.63;;;18.90;99.90;;;19.34;74.71;95280.34;5126202;28;20460;-57
2022/06/29 01:13:01;;;;;;;16.80;7.73;;;18.90;99.90;;;19.33;75.02;95278.72;5125802;28;20456;-55
2022/06/29 01:15:29;;;;;;;20.47;7.03;;;18.90;99.90;;;19.31;75.30;95275.38;5126240;28;20456;-56
2022/06/29 01:17:57;;;;;;;8.77;7.23;;;18.90;99.90;;;19.30;74.91;95271.09;5124293;27;20448;-56
2022/06/29 01:20:25;;;;;;;12.13;7.10;;;18.90;99.90;;;19.30;74.58;95264.91;5126665;27;20895;-53
2022/06/29 01:22:53;;;;;;;13.07;6.43;;;18.90;99.90;;;19.27;75.04;95263.44;5129593;27;20535;-55
2022/06/29 01:25:21;;;;;;;7.73;6.97;;;18.90;99.90;;;19.25;75.17;95270.78;5129636;27;20471;-56
2022/06/29 01:27:48;;;;;;;11.47;7.20;;;18.90;99.90;;;19.23;75.36;95267.47;5128195;27;20492;-54
2022/06/29 01:30:15;;;;;;;20.90;7.60;;;18.80;99.90;;;19.23;75.31;95261.34;5127124;27;20468;-53
2022/06/29 01:32:43;;;;;;;24.03;7.67;;;18.80;99.90;;;19.21;75.50;95258.84;5129213;27;20452;-56
2022/06/29 01:35:16;;;;;;;7.80;7.10;;;18.80;99.90;;;19.20;75.93;95262.50;5125930;27;20509;-52
2022/06/29 01:37:43;;;;;;;20.43;6.97;;;18.80;99.90;;;19.19;75.63;95265.38;5129958;27;20870;-54
2022/06/29 01:40:13;;;;;;;9.30;7.00;;;18.80;99.90;;;19.19;75.53;95274.19;5129452;27;20479;-56
2022/06/29 01:42:40;;;;;;;9.70;6.50;;;18.80;99.90;;;19.21;75.49;95282.84;5129598;27;20971;-55
2022/06/29 01:45:09;;;;;;;17.13;8.23;;;18.80;99.90;;;19.22;76.01;95278.34;5129528;27;20483;-55
2022/06/29 01:47:37;;;;;;;11.53;8.23;;;18.80;99.90;;;19.22;75.51;95275.66;5129384;27;20498;-55
2022/06/29 01:50:05;;;;;;;20.17;8.40;;;18.80;99.90;;;19.21;75.98;95264.19;5129771;27;20927;-55
2022/06/29 01:52:32;;;;;;;9.50;7.97;;;18.80;99.90;;;19.21;76.19;95261.50;5129227;27;20448;-57
2022/06/29 01:54:59;;;;;;;9.93;8.60;;;18.80;99.90;;;19.21;75.47;95264.19;5129428;27;20472;-54
2022/06/29 01:57:28;;;;;;;9.90;8.90;;;18.80;99.90;;;19.14;75.18;95261.41;5128984;27;20459;-55
2022/06/29 01:59:55;;;;;;;8.80;8.00;;;18.80;99.90;;;19.06;76.00;95256.16;5126869;27;20479;-57
2022/06/29 02:02:23;;;;;;;10.37;9.10;;;18.70;99.90;;;18.99;75.36;95255.22;5129033;27;20852;-55
2022/06/29 02:04:50;;;;;;;13.30;8.70;;;18.70;99.90;;;18.92;75.70;95257.81;5128224;27;20456;-54
2022/06/29 02:07:17;;;;;;;12.70;9.00;;;18.60;99.90;;;18.85;76.22;95258.72;5128969;27;20495;-55
2022/06/29 02:09:44;;;;;;;9.70;8.80;;;18.50;99.90;;;18.80;75.82;95264.56;5128848;27;20448;-55
2022/06/29 02:12:12;;;;;;;11.40;8.70;;;18.50;99.90;;;18.76;76.55;95252.59;5128809;27;20449;-54
2022/06/29 02:14:40;;;;;;;19.93;8.90;;;18.40;99.90;;;18.75;76.64;95250.97;5129093;27;20448;-55
2022/06/29 02:17:08;;;;;;;9.87;8.97;;;18.40;99.90;;;18.74;76.99;95255.44;5126281;27;20570;-54
2022/06/29 02:19:37;;;;;;;9.67;8.67;;;18.30;99.90;;;18.72;76.47;95253.97;5129151;27;21001;-54
2022/06/29 02:22:05;;;;;;;16.73;8.43;;;18.30;99.90;;;18.71;77.33;95252.31;5129080;27;20514;-55
2022/06/29 02:24:32;;;;;;;10.50;8.50;;;18.40;99.90;;;18.73;77.05;95252.94;5127174;27;20452;-55
2022/06/29 02:26:59;;;;;;;15.23;9.60;;;18.40;99.90;;;18.76;77.24;95249.94;5128730;27;20472;-55
2022/06/29 02:29:27;;;;;;;10.50;8.33;;;18.30;99.90;;;18.77;77.38;95252.41;5124870;27;20440;-55
2022/06/29 02:34:46;;;;;;;9.43;8.53;;;18.40;99.90;;;18.81;77.28;95242.25;5128021;27;20553;-57
2022/06/29 02:37:14;;;;;;;12.63;9.13;;;18.40;99.90;;;18.81;76.42;95239.56;5126651;27;20452;-56
2022/06/29 02:39:42;;;;;;;12.07;9.10;;;18.50;99.90;;;18.80;76.98;95241.38;5122140;27;20453;-54
2022/06/29 02:42:10;;;;;;;7.43;6.73;;;18.40;99.90;;;18.80;75.97;95240.56;5121426;27;20535;-52
2022/06/29 02:44:37;;;;;;;7.60;6.87;;;18.40;99.90;;;18.78;76.33;95231.94;5127080;27;20448;-54
2022/06/29 02:47:06;;;;;;;7.93;6.33;;;18.40;99.90;;;18.78;75.95;95237.28;5119961;27;20452;-57
2022/06/29 02:49:34;;;;;;;12.00;6.43;;;18.40;99.90;;;18.75;75.67;95238.44;5123885;27;20488;-55
2022/06/29 02:52:01;;;;;;;6.97;5.90;;;18.40;99.90;;;18.75;75.11;95238.44;5123306;27;20823;-54
2022/06/29 02:54:28;;;;;;;7.17;6.67;;;18.40;99.90;;;18.76;75.20;95236.59;5123942;27;20944;-55
2022/06/29 02:56:56;;;;;;;6.50;5.57;;;18.40;99.90;;;18.76;75.75;95236.59;5124562;27;21077;-53
2022/06/29 02:59:23;;;;;;;11.67;5.37;;;18.40;99.90;;;18.76;75.00;95228.59;5123191;27;20489;-55
2022/06/29 03:01:50;;;;;;;6.50;5.33;;;18.40;99.90;;;18.76;75.47;95228.59;5119586;27;20481;-56
2022/06/29 03:04:19;;;;;;;8.40;6.03;;;18.40;99.90;;;18.77;74.78;95233.75;5126859;27;20452;-56
2022/06/29 03:06:46;;;;;;;14.33;6.43;;;18.40;99.90;;;18.76;75.32;95226.78;5119989;27;20476;-54
2022/06/29 03:09:14;;;;;;;6.60;6.10;;;18.40;99.90;;;18.75;75.28;95235.78;5127740;27;20490;-54
2022/06/29 03:11:41;;;;;;;6.93;5.60;;;18.40;99.90;;;18.76;75.26;95231.28;5123219;27;20495;-56
2022/06/29 03:14:08;;;;;;;8.03;6.30;;;18.40;99.90;;;18.76;74.97;95229.47;5123480;27;20459;-52
2022/06/29 03:16:37;;;;;;;12.40;5.93;;;18.40;99.90;;;18.76;74.64;95233.94;5119031;27;20472;-56
2022/06/29 03:19:04;;;;;;;6.43;5.83;;;18.40;99.90;;;18.74;73.90;95220.78;5122964;27;20448;-56
2022/06/29 03:21:32;;;;;;;5.67;5.23;;;18.40;99.90;;;18.73;74.28;95234.31;5123707;27;20487;-57
2022/06/29 03:24:01;;;;;;;5.30;4.90;;;18.30;99.90;;;18.71;74.16;95236.31;5123055;27;20444;-57
2022/06/29 03:26:28;;;;;;;6.33;5.50;;;18.30;99.90;;;18.70;74.10;95234.66;5119409;27;20992;-55
2022/06/29 03:28:55;;;;;;;5.93;5.53;;;18.30;99.90;;;18.68;73.60;95234.84;5123877;27;21261;-54
2022/06/29 03:31:23;;;;;;;7.03;6.27;;;18.30;99.90;;;18.68;73.44;95226.03;5121101;27;20881;-55
2022/06/29 03:33:50;;;;;;;6.93;6.33;;;18.30;99.90;;;18.66;73.87;95228.88;5128648;27;20516;-55
2022/06/29 03:36:17;;;;;;;7.30;5.97;;;18.30;99.90;;;18.66;73.52;95239.53;5120240;27;20551;-57
2022/06/29 03:38:46;;;;;;;6.17;5.47;;;18.30;99.90;;;18.66;73.98;95236.88;5116266;27;20479;-54
2022/06/29 03:41:13;;;;;;;7.37;5.03;;;18.30;99.90;;;18.66;73.32;95233.38;5115622;27;20468;-59
2022/06/29 03:43:40;;;;;;;6.47;5.87;;;18.30;99.90;;;18.66;73.43;95236.06;5123793;27;20513;-56
2022/06/29 03:46:08;;;;;;;9.60;4.90;;;18.30;99.90;;;18.67;73.97;95233.22;5123788;27;21019;-57
2022/06/29 03:48:35;;;;;;;6.07;5.67;;;18.30;99.90;;;18.69;74.04;95239.16;5131850;27;20957;-55
2022/06/29 03:51:03;;;;;;;8.97;6.00;;;18.30;99.90;;;18.73;73.58;95226.31;5124944;27;21008;-55
2022/06/29 03:53:30;;;;;;;8.90;6.03;;;18.30;99.90;;;18.76;73.51;95223.28;5123048;27;20444;-55
2022/06/29 03:55:59;;;;;;;9.10;6.30;;;18.40;99.90;;;18.79;73.60;95218.44;5126729;27;20484;-54
2022/06/29 03:58:26;;;;;;;15.63;7.13;;;18.40;99.90;;;18.83;73.66;95215.41;5126931;27;20989;-54
2022/06/29 04:00:53;;;;;;;12.17;6.20;;;18.40;99.90;;;18.86;73.64;95213.22;5115260;27;20483;-55
2022/06/29 04:03:21;;;;;;;8.87;6.37;;;18.50;99.90;;;18.89;72.93;95209.38;5119692;27;20467;-58
2022/06/29 04:05:48;;;;;;;11.43;6.27;;;18.50;99.90;;;18.91;73.38;95218.00;5119916;27;20487;-55
2022/06/29 04:08:15;;;;;;;10.97;6.93;;;18.50;99.90;;;18.94;72.92;95205.13;5120789;27;20494;-55
2022/06/29 04:10:42;;;;;;;16.53;6.67;;;18.50;99.90;;;18.99;73.21;95208.09;5119605;27;20563;-55
2022/06/29 04:13:11;;;;;;;32.57;7.60;;;18.60;99.90;;;19.06;73.06;95208.19;5124187;27;20444;-56
2022/06/29 04:15:38;;;;;;;17.63;7.53;;;18.60;99.90;;;19.14;73.18;95197.41;5121220;27;20465;-55
2022/06/29 04:18:06;;;;;;;7.90;7.20;;;18.70;99.90;;;19.21;72.94;95192.19;5118564;27;20449;-56
2022/06/29 04:23:18;;;;;;;12.87;7.80;;;18.80;99.90;;;19.32;72.60;95186.38;5120943;28;20443;-54
2022/06/29 04:25:45;;;;;;;10.50;7.20;;;18.90;99.90;;;19.38;72.54;95206.13;5120927;28;20475;-54
2022/06/29 04:28:14;;;;;;;28.13;7.70;;;19.00;99.90;;;19.45;72.59;95206.22;5121806;28;20495;-56
2022/06/29 04:30:41;;;;;;;19.83;8.40;;;19.00;99.90;;;19.50;72.43;95210.00;5120209;28;20491;-54
2022/06/29 04:33:08;;;;;;;12.13;8.07;;;19.10;99.90;;;19.56;72.69;95202.25;5119444;28;20468;-55
2022/06/29 04:35:36;;;;;;;15.30;7.70;;;19.10;99.90;;;19.58;71.94;95195.72;5120814;28;20498;-59
2022/06/29 04:38:03;;;;;;;13.03;8.97;;;19.10;99.90;;;19.62;71.99;95202.31;5123328;28;20456;-56
2022/06/29 04:40:30;;;;;;;23.07;10.33;;;19.20;99.90;;;19.65;71.76;95199.25;5126424;28;20468;-54
2022/06/29 04:42:58;;;;;;;24.63;9.77;;;19.20;99.90;;;19.70;71.80;95199.53;5118640;28;20741;-57
2022/06/29 04:48:11;;;;;;;19.90;9.77;;;19.30;99.90;;;19.77;71.41;95190.78;5117607;28;20541;-54
2022/06/29 04:50:38;;;;;;;14.70;11.30;;;19.30;99.90;;;19.78;71.57;95203.94;5121230;28;20813;-54
2022/06/29 04:53:05;;;;;;;12.87;10.17;;;19.40;99.90;;;19.81;71.31;95205.41;5121923;27;20459;-57
2022/06/29 04:55:33;;;;;;;14.17;10.90;;;19.40;99.90;;;19.86;71.22;95221.69;5120901;27;20620;-55
2022/06/29 04:58:00;;;;;;;11.30;10.23;;;19.40;99.90;;;19.93;71.52;95219.09;5119916;27;20468;-52
2022/06/29 05:00:29;;;;;;;13.50;11.00;;;19.50;99.90;;;19.99;71.63;95213.81;5129547;27;20495;-56
2022/06/29 05:02:56;;;;;;;15.53;12.20;;;19.60;99.90;;;20.06;71.80;95222.75;5129083;27;20456;-55
2022/06/29 05:05:23;;;;;;;13.60;10.67;;;19.70;99.90;;;20.16;71.25;95218.94;5129763;27;20475;-55
2022/06/29 05:07:51;;;;;;;23.30;11.47;;;19.70;99.90;;;20.23;70.71;95220.66;5129839;27;20447;-54
2022/06/29 05:10:18;;;;;;;15.73;10.60;;;19.80;99.90;;;20.30;70.80;95218.03;5130432;27;20471;-54
2022/06/29 05:12:45;;;;;;;14.20;11.03;;;19.80;99.90;;;20.36;70.33;95213.78;5130217;27;20460;-56
2022/06/29 05:15:12;;;;;;;14.77;12.20;;;19.90;99.90;;;20.40;70.46;95218.53;5130245;27;20582;-57
2022/06/29 05:17:41;;;;;;;20.40;11.60;;;20.00;99.90;;;20.44;70.56;95220.81;5126865;27;20444;-54
2022/06/29 05:20:11;;;;;;;16.97;11.30;;;20.00;99.90;;;20.50;70.60;95222.72;5130476;27;20481;-56
2022/06/29 05:22:38;;;;;;;18.50;11.33;;;20.00;99.90;;;20.60;70.06;95217.84;5127362;27;20523;-54
2022/06/29 05:25:07;;;;;;;27.73;12.47;;;20.10;99.90;;;20.74;70.16;95221.50;5128691;27;20472;-57
2022/06/29 05:27:34;;;;;;;19.60;12.00;;;20.20;99.90;;;20.90;69.77;95225.75;5129788;27;20455;-55
2022/06/29 05:30:01;;;;;;;21.23;12.67;;;20.40;99.90;;;21.04;69.68;95214.09;5122622;27;21003;-55
2022/06/29 05:32:29;;;;;;;12.40;11.10;;;20.50;99.90;;;21.16;69.12;95224.22;5127737;27;20463;-56
2022/06/29 05:34:57;;;;;;;19.00;12.13;;;20.60;99.90;;;21.34;69.09;95223.72;5130200;27;20898;-56
2022/06/29 05:37:25;;;;;;;17.63;11.80;;;20.80;99.90;;;21.52;68.67;95217.84;5129524;27;20452;-54
2022/06/29 05:39:52;;;;;;;15.03;12.47;;;20.90;99.90;;;21.71;68.60;95216.31;5129724;27;20982;-57
2022/06/29 05:42:19;;;;;;;27.43;11.73;;;21.10;99.90;;;21.91;68.32;95216.38;5129335;27;20567;-56
2022/06/29 05:44:47;;;;;;;21.30;10.77;;;21.30;99.90;;;22.08;67.45;95209.59;5125934;27;20600;-56
2022/06/29 05:47:15;;;;;;;12.10;10.80;;;21.50;99.90;;;22.28;67.03;95225.72;5129753;27;20448;-56
2022/06/29 05:49:42;;;;;;;32.23;12.30;;;21.70;99.90;;;22.48;66.84;95231.13;5129697;27;21303;-54
2022/06/29 05:52:11;;;;;;;12.37;11.13;;;21.90;99.90;;;22.69;66.47;95240.00;5129697;27;20479;-54
2022/06/29 05:54:38;;;;;;;15.80;11.87;;;22.10;99.90;;;22.87;66.11;95248.25;5129260;27;20444;-56
2022/06/29 05:57:06;;;;;;;18.63;12.20;;;22.20;99.90;;;23.07;65.38;95242.03;5129310;27;20448;-55
2022/06/29 05:59:33;;;;;;;13.93;12.17;;;22.40;99.90;;;23.24;65.02;95240.59;5124843;27;20543;-54
2022/06/29 06:02:01;;;;;;;13.43;12.03;;;22.60;99.90;;;23.41;64.60;95243.66;5128468;27;20481;-53
2022/06/29 06:04:28;;;;;;;14.53;11.10;;;22.80;99.90;;;23.57;63.63;95239.66;5129418;27;20457;-54
2022/06/29 06:06:55;;;;;;;17.07;12.20;;;23.00;99.90;;;23.75;63.06;95246.19;5129401;27;20700;-54
2022/06/29 06:09:26;;;;;;;22.93;12.70;;;23.10;99.90;;;23.91;62.74;95236.88;5129126;27;20487;-56
2022/06/29 06:11:55;;;;;;;16.53;12.40;;;23.30;99.90;;;24.07;62.55;95231.00;5129361;27;20801;-55
2022/06/29 06:14:22;;;;;;;15.17;10.87;;;23.40;99.70;;;24.24;63.03;95236.69;5128559;27;20556;-54
2022/06/29 06:16:50;;;;;;;16.30;12.07;;;23.60;99.50;;;24.41;61.91;95237.00;5125464;27;20468;-55
2022/06/29 06:19:17;;;;;;;19.30;11.10;;;23.80;98.80;;;24.58;61.03;95236.50;5128867;27;20456;-53
2022/06/29 06:21:44;;;;;;;12.90;10.43;;;23.90;98.80;;;24.71;60.63;95231.03;5128648;27;20475;-54
2022/06/29 06:24:11;;;;;;;16.90;11.73;;;24.00;98.10;;;24.85;60.44;95226.34;5128931;27;20452;-55
2022/06/29 06:26:40;;;;;;;18.13;10.13;;;24.20;97.90;;;24.98;59.95;95231.59;5128594;27;20697;-52
2022/06/29 06:29:07;;;;;;;15.53;10.83;;;24.30;97.80;;;25.13;60.07;95225.03;5124376;27;20477;-55
2022/06/29 06:31:35;;;;;;;13.63;11.07;;;24.50;97.60;;;25.29;59.68;95227.19;5128406;27;20468;-55
2022/06/29 06:34:02;;;;;;;16.40;10.90;;;24.60;97.20;;;25.43;59.21;95217.09;5128344;27;20917;-56
2022/06/29 06:36:29;;;;;;;13.83;9.50;;;24.80;97.00;;;25.56;58.82;95216.13;5128363;27;20475;-56
2022/06/29 06:38:57;;;;;;;11.47;10.23;;;24.90;96.90;;;25.68;58.94;95208.94;5128223;27;20451;-55
2022/06/29 06:41:25;;;;;;;12.80;9.53;;;25.00;96.70;;;25.83;58.45;95211.25;5128411;27;20483;-55
2022/06/29 06:43:55;;;;;;;17.27;12.50;;;25.10;96.30;;;25.96;57.95;95210.22;5127682;27;20474;-55
2022/06/29 06:46:22;;;;;;;14.00;10.30;;;25.30;95.90;;;26.00;57.82;95211.47;5128309;27;21109;-56
2022/06/29 06:48:50;;;;;;;19.63;11.40;;;25.30;95.70;;;26.12;57.88;95217.72;5125987;27;21027;-54
2022/06/29 06:51:18;;;;;;;16.73;10.10;;;25.40;95.80;;;26.26;57.18;95212.16;5128051;27;20467;-54
2022/06/29 06:53:45;;;;;;;12.03;9.40;;;25.60;95.20;;;26.37;56.47;95214.06;5126972;27;20439;-55
2022/06/29 06:56:13;;;;;;;11.17;10.07;;;25.70;95.20;;;26.50;56.71;95207.63;5127984;27;20502;-57
2022/06/29 06:58:40;;;;;;;12.13;8.90;;;25.80;94.70;;;26.70;56.39;95209.22;5128048;27;20455;-55
2022/06/29 07:01:10;;;;;;;15.37;8.43;;;25.90;94.70;;;26.91;56.15;95207.81;5127584;27;20550;-54
2022/06/29 07:03:37;;;;;;;11.30;9.00;;;26.20;94.50;;;27.13;55.89;95208.88;5123092;27;20454;-54
2022/06/29 07:06:05;;;;;;;12.83;8.60;;;26.40;94.00;;;27.34;55.40;95201.25;5127801;27;20850;-56
2022/06/29 07:08:33;;;;;;;15.77;8.30;;;26.60;93.70;;;27.51;55.06;95198.66;5127622;27;20444;-56
2022/06/29 07:11:00;;;;;;;13.53;9.13;;;26.80;93.20;;;27.68;54.37;95206.84;5123928;27;20470;-54
2022/06/29 07:13:28;;;;;;;18.63;9.00;;;27.00;92.70;;;27.83;53.74;95200.94;5128025;27;20451;-56
2022/06/29 07:15:55;;;;;;;13.80;8.37;;;27.10;91.90;;;27.98;53.64;95203.13;5127396;27;20464;-55
2022/06/29 07:18:24;;;;;;;12.77;9.10;;;27.30;91.80;;;28.15;53.46;95201.31;5123719;27;20447;-56
2022/06/29 07:20:52;;;;;;;12.30;8.93;;;27.40;91.50;;;28.33;52.56;95191.31;5127944;27;20471;-55
2022/06/29 07:23:20;;;;;;;13.83;8.97;;;27.60;91.10;;;28.51;52.31;95188.41;5127298;27;20452;-56
2022/06/29 07:25:48;;;;;;;9.60;8.60;;;27.80;90.80;;;28.69;52.28;95190.09;5125137;27;20464;-56
2022/06/29 07:28:15;;;;;;;13.40;8.87;;;27.90;90.40;;;28.86;52.30;95191.94;5126596;27;20447;-55
2022/06/29 07:30:42;;;;;;;10.57;7.90;;;28.10;90.20;;;29.01;51.22;95185.97;5123285;27;20877;-53
2022/06/29 07:33:10;;;;;;;12.93;8.90;;;28.30;89.10;;;29.15;51.49;95189.94;5125790;27;20919;-55
2022/06/29 07:35:38;;;;;;;7.70;7.00;;;28.40;88.60;;;29.29;50.30;95191.25;5127322;27;20504;-56
2022/06/29 07:38:07;;;;;;;12.20;7.00;;;28.50;87.60;;;29.32;49.70;95190.75;5127022;27;20458;-55
2022/06/29 07:40:34;;;;;;;8.20;6.77;;;28.60;85.40;;;29.36;49.29;95190.25;5124967;27;20995;-55
2022/06/29 07:43:01;;;;;;;7.17;6.57;;;28.60;84.20;;;29.37;49.08;95179.19;5127661;27;20451;-54
2022/06/29 07:45:29;;;;;;;9.80;5.27;;;28.60;83.60;;;29.42;49.31;95183.84;5127150;27;20498;-55
2022/06/29 07:47:56;;;;;;;7.10;5.70;;;28.70;82.20;;;29.51;48.73;95176.91;5127581;27;20455;-53
2022/06/29 07:50:23;;;;;;;8.83;4.57;;;28.80;81.60;;;29.63;48.59;95184.94;5126710;27;20871;-56
2022/06/29 07:52:52;;;;;;;5.50;4.70;;;28.90;81.70;;;29.80;48.75;95174.84;5127488;27;20478;-56
2022/06/29 07:55:19;;;;;;;4.97;4.63;;;29.00;81.30;;;30.03;48.59;95178.38;5118534;27;20512;-55
2022/06/29 07:57:47;;;;;;;6.20;5.07;;;29.20;80.50;;;30.29;47.72;95182.16;5126282;27;20443;-57
2022/06/29 08:00:15;;;;;;;6.20;5.70;;;29.50;78.70;;;30.55;47.07;95172.41;5118618;27;20557;-57
2022/06/29 08:02:43;;;;;;;5.37;4.97;;;29.70;78.00;;;30.82;47.09;95185.09;5122070;27;20266;-55
2022/06/29 08:05:11;;;;;;;5.13;4.63;;;30.00;77.60;;;31.03;47.20;95169.81;5121220;27;20218;-53
2022/06/29 08:07:38;;;;;;;5.27;4.50;;;30.30;76.20;;;31.27;46.04;95175.63;5122338;27;20198;-56
2022/06/29 08:10:08;;;;;;;5.43;4.30;;;30.50;75.20;;;31.44;46.23;95180.88;5119200;27;20303;-53
2022/06/29 08:12:36;;;;;;;5.20;4.33;;;30.60;73.80;;;31.60;45.21;95186.44;5126285;27;20280;-52
2022/06/29 08:15:04;;;;;;;5.25;4.28;;;30.80;72.20;;;31.78;44.73;95172.38;5122650;27;20219;-56
2022/06/29 08:17:31;;;;;;;4.90;4.50;;;30.90;70.80;;;31.96;44.72;95170.25;5118491;27;20237;-56
2022/06/29 08:19:58;;;;;;;8.67;5.37;;;31.20;70.40;;;32.19;44.16;95170.88;5117812;28;20224;-56
2022/06/29 08:22:26;;;;;;;5.03;4.45;;;31.40;69.60;;;32.39;43.93;95175.53;5126475;28;20671;-54
2022/06/29 08:24:53;;;;;;;5.20;4.43;;;31.60;68.70;;;32.59;43.58;95180.19;5118791;28;20197;-56
2022/06/29 08:27:23;;;;;;;6.57;5.97;;;31.80;68.10;;;32.79;43.80;95182.13;5120887;27;20198;-56
2022/06/29 08:29:50;;;;;;;6.10;4.47;;;32.00;67.50;;;32.97;43.48;95178.00;5128737;27;20282;-55
2022/06/29 08:32:17;;;;;;;5.05;4.65;;;32.20;66.50;;;33.16;43.03;95184.53;5129981;27;20575;-54
2022/06/29 08:34:45;;;;;;;9.13;7.35;;;32.40;65.80;;;33.30;42.51;95184.00;5127272;27;20205;-55
2022/06/29 08:37:12;;;;;;;5.00;4.47;;;32.50;64.70;;;33.36;42.34;95181.00;5130530;27;20198;-54
2022/06/29 08:39:39;;;;;;;10.43;4.45;;;32.60;64.40;;;33.50;42.04;95174.97;5130430;27;20685;-57
2022/06/29 08:42:07;;;;;;;4.32;4.03;;;32.70;63.50;;;33.67;41.51;95174.63;5131028;27;20202;-55
2022/06/29 08:44:37;;;;;;;4.45;4.15;;;32.90;62.70;;;33.86;41.35;95178.38;5130458;27;20198;-55
2022/06/29 08:47:05;;;;;;;5.55;4.90;;;33.10;61.60;;;34.02;40.96;95170.94;5131112;27;20204;-56
2022/06/29 08:49:33;;;;;;;10.15;4.88;;;33.30;60.60;;;34.20;41.20;95174.13;5129996;27;20636;-58
2022/06/29 08:52:00;;;;;;;4.40;3.95;;;33.40;60.60;;;34.25;40.94;95174.91;5130286;27;20218;-54
2022/06/29 08:54:28;;;;;;;5.43;4.00;;;33.50;59.60;;;34.25;39.69;95176.84;5130560;27;20198;-56
2022/06/29 08:56:56;;;;;;;4.13;3.60;;;33.50;58.70;;;34.32;39.41;95173.78;5130045;27;20218;-56
2022/06/29 08:59:23;;;;;;;5.47;3.53;;;33.60;58.60;;;34.47;39.31;95173.69;5130908;27;20209;-56
2022/06/29 09:01:52;;;;;;;6.43;4.38;;;33.70;57.90;;;34.59;39.31;95168.69;5129979;27;20222;-57
2022/06/29 09:04:20;;;;;;;6.68;3.88;;;33.80;57.00;;;34.70;38.16;95163.13;5129982;27;20658;-55
2022/06/29 09:06:47;;;;;;;4.75;4.35;;;33.90;56.20;;;34.83;38.67;95165.25;5126776;27;20563;-57
2022/06/29 09:09:14;;;;;;;4.90;3.85;;;34.00;55.70;;;34.94;37.70;95168.72;5130495;27;20644;-54
2022/06/29 09:11:43;;;;;;;5.90;3.97;;;34.10;55.30;;;35.09;37.17;95165.00;5129951;27;20218;-55
2022/06/29 09:14:14;;;;;;;6.80;3.60;;;34.30;54.00;;;35.22;36.83;95158.06;5130550;27;20655;-55
2022/06/29 09:16:58;;;;;;;3.40;3.15;;;34.40;53.60;;;35.35;36.02;95163.69;5129885;27;20206;-56
2022/06/29 09:19:29;;;;;;;5.47;3.92;;;34.60;52.50;;;35.47;36.70;95165.19;5128681;27;20229;-55
2022/06/29 09:21:57;;;;;;;4.25;3.85;;;34.70;52.80;;;35.48;36.60;95164.91;5130054;27;20249;-56
2022/06/29 09:24:26;;;;;;;11.10;4.38;;;34.70;52.20;;;35.37;36.66;95160.66;5128538;27;20198;-53
2022/06/29 09:26:55;;;;;;;13.18;6.20;;;34.70;52.20;;;35.28;37.38;95157.72;5129550;27;20249;-55
2022/06/29 09:29:24;;;;;;;7.53;6.05;;;34.60;52.50;;;35.24;36.36;95159.38;5129314;27;20217;-53
2022/06/29 09:32:16;;;;;;;18.80;5.72;;;34.50;51.50;;;35.07;35.95;95161.75;5128411;27;20221;-55
2022/06/29 09:34:46;;;;;;;9.77;3.97;;;34.40;51.70;;;35.02;36.52;95159.88;5128477;27;20198;-56
2022/06/29 09:37:14;;;;;;;3.78;3.45;;;34.30;52.10;;;34.87;36.83;95162.75;5129406;27;20203;-54
2022/06/29 09:39:44;;;;;;;3.35;3.05;;;34.20;51.30;;;34.73;36.61;95152.44;5129457;27;20209;-56
2022/06/29 09:42:12;;;;;;;3.72;3.42;;;34.00;51.00;;;34.66;36.50;95152.78;5129419;27;20206;-54
2022/06/29 09:44:39;;;;;;;3.97;3.67;;;33.90;50.50;;;34.67;36.59;95142.66;5129174;27;20692;-55
2022/06/29 09:47:08;;;;;;;5.05;3.20;;;33.90;50.90;;;34.76;35.71;95151.09;5126290;27;20234;-55
2022/06/29 09:49:37;;;;;;;5.35;4.00;;;34.00;50.70;;;34.80;35.46;95144.78;5125179;27;20232;-55
2022/06/29 09:52:06;;;;;;;5.95;3.42;;;34.00;50.00;;;34.90;35.14;95143.84;5129085;27;20757;-56
2022/06/29 09:54:39;;;;;;;6.90;3.40;;;34.10;49.60;;;35.03;34.42;95144.28;5129198;27;20665;-56
2022/06/29 09:57:07;;;;;;;3.22;3.03;;;34.20;48.50;;;35.14;34.92;95140.34;5127237;27;20615;-56
2022/06/29 10:02:36;;;;;;;6.25;3.70;;;34.40;49.00;;;35.30;34.38;95135.56;5127367;27;20516;-53
2022/06/29 10:05:07;;;;;;;4.15;3.80;;;34.50;48.10;;;35.34;34.14;95128.41;5127695;27;20250;-56
2022/06/29 10:07:36;;;;;;;4.53;3.17;;;34.60;48.00;;;35.35;34.22;95141.81;5129251;27;20194;-56
2022/06/29 10:10:06;;;;;;;3.60;3.30;;;34.60;48.00;;;35.40;32.74;95131.88;5128927;27;20229;-55
2022/06/29 10:15:52;;;;;;;5.97;3.67;;;34.70;47.60;;;35.41;33.56;95125.31;5123983;27;20290;-57
2022/06/29 10:18:27;;;;;;;4.50;3.72;;;34.70;48.10;;;35.30;33.76;95121.88;5125763;27;20190;-55
2022/06/29 10:20:56;;;;;;;8.23;3.13;;;34.60;46.70;;;35.22;33.45;95125.25;5128805;27;20665;-56
2022/06/29 10:23:48;;;;;;;5.03;2.97;;;34.50;47.20;;;35.21;33.66;95120.88;5129093;27;20202;-56
2022/06/29 10:26:41;;;;;;;4.95;3.33;;;34.50;46.50;;;35.18;32.00;95124.97;5128129;27;20241;-56
2022/06/29 10:29:36;;;;;;;3.78;3.47;;;34.50;46.00;;;35.08;33.46;95125.13;5128561;27;20218;-56
2022/06/29 10:32:14;;;;;;;3.80;3.47;;;34.40;46.40;;;34.95;33.87;95123.84;5123927;27;20737;-57
2022/06/29 10:37:30;;;;;;;4.60;2.67;;;34.10;46.50;;;34.65;34.08;95112.88;5128077;27;20587;-56